sensor_id;sensor_type;location;lat;lon;timestamp;pressure;altitude;pressure_sealevel;temperature;humidity
11605;BME280;5858;43.076;25.626;2023-07-02T00:02:20;98401.34;;;23.78;74.67
11605;BME280;5858;43.076;25.626;2023-07-02T00:04:48;98431.88;;;23.85;73.90
11605;BME280;5858;43.076;25.626;2023-07-02T00:07:15;98406.97;;;23.87;72.81
11605;BME280;5858;43.076;25.626;2023-07-02T00:09:42;98362.75;;;23.61;72.74
11605;BME280;5858;43.076;25.626;2023-07-02T00:12:09;98350.53;;;23.53;72.34
11605;BME280;5858;43.076;25.626;2023-07-02T00:14:36;98258.53;;;23.06;72.18
11605;BME280;5858;43.076;25.626;2023-07-02T00:17:03;98379.56;;;23.73;71.58
11605;BME280;5858;43.076;25.626;2023-07-02T00:19:30;98350.44;;;23.64;71.65
11605;BME280;5858;43.076;25.626;2023-07-02T00:21:59;98330.84;;;23.57;71.26
11605;BME280;5858;43.076;25.626;2023-07-02T00:24:26;98375.06;;;23.59;73.24
11605;BME280;5858;43.076;25.626;2023-07-02T00:26:55;98392.50;;;23.63;74.16
11605;BME280;5858;43.076;25.626;2023-07-02T00:29:22;98385.28;;;23.48;74.23
11605;BME280;5858;43.076;25.626;2023-07-02T00:31:49;98366.69;;;23.26;75.04
11605;BME280;5858;43.076;25.626;2023-07-02T00:34:16;98388.88;;;23.43;75.33
11605;BME280;5858;43.076;25.626;2023-07-02T00:36:43;98367.38;;;23.37;74.56
11605;BME280;5858;43.076;25.626;2023-07-02T00:39:11;98367.56;;;23.21;75.68
11605;BME280;5858;43.076;25.626;2023-07-02T00:41:38;98331.69;;;23.04;75.35
11605;BME280;5858;43.076;25.626;2023-07-02T00:44:05;98337.94;;;23.05;75.22
11605;BME280;5858;43.076;25.626;2023-07-02T00:46:32;98379.53;;;23.26;76.23
11605;BME280;5858;43.076;25.626;2023-07-02T00:48:59;98389.00;;;23.33;76.19
11605;BME280;5858;43.076;25.626;2023-07-02T00:51:27;98219.78;;;22.22;75.61
11605;BME280;5858;43.076;25.626;2023-07-02T00:53:56;98398.81;;;23.34;75.45
11605;BME280;5858;43.076;25.626;2023-07-02T00:56:26;98355.00;;;23.20;75.00
11605;BME280;5858;43.076;25.626;2023-07-02T00:58:54;98345.03;;;23.06;75.29
11605;BME280;5858;43.076;25.626;2023-07-02T01:01:25;98376.31;;;23.18;75.98
11605;BME280;5858;43.076;25.626;2023-07-02T01:03:54;98381.66;;;23.29;76.59
11605;BME280;5858;43.076;25.626;2023-07-02T01:06:26;98272.03;;;22.63;76.65
11605;BME280;5858;43.076;25.626;2023-07-02T01:08:58;98284.25;;;22.71;76.48
11605;BME280;5858;43.076;25.626;2023-07-02T01:11:28;98390.44;;;23.26;76.73
11605;BME280;5858;43.076;25.626;2023-07-02T01:14:00;98384.47;;;23.23;76.81
11605;BME280;5858;43.076;25.626;2023-07-02T01:16:30;98380.69;;;23.19;76.93
11605;BME280;5858;43.076;25.626;2023-07-02T01:18:59;98357.00;;;23.10;75.86
11605;BME280;5858;43.076;25.626;2023-07-02T01:21:31;98376.31;;;23.18;75.98
11605;BME280;5858;43.076;25.626;2023-07-02T01:23:59;98375.59;;;23.08;77.40
11605;BME280;5858;43.076;25.626;2023-07-02T01:26:29;98358.03;;;22.90;76.89
11605;BME280;5858;43.076;25.626;2023-07-02T01:28:59;98369.78;;;23.14;76.87
11605;BME280;5858;43.076;25.626;2023-07-02T01:31:26;98337.59;;;22.87;77.80
11605;BME280;5858;43.076;25.626;2023-07-02T01:33:54;98375.41;;;22.99;79.05
11605;BME280;5858;43.076;25.626;2023-07-02T01:36:21;98263.91;;;22.29;79.92
11605;BME280;5858;43.076;25.626;2023-07-02T01:38:49;98370.69;;;23.05;79.65
11605;BME280;5858;43.076;25.626;2023-07-02T01:41:16;98350.19;;;22.78;79.97
11605;BME280;5858;43.076;25.626;2023-07-02T01:43:43;98274.44;;;21.97;81.38
11605;BME280;5858;43.076;25.626;2023-07-02T01:46:10;98375.78;;;22.48;83.64
11605;BME280;5858;43.076;25.626;2023-07-02T01:48:37;98367.09;;;22.41;84.18
11605;BME280;5858;43.076;25.626;2023-07-02T01:51:04;98396.69;;;22.58;83.53
11605;BME280;5858;43.076;25.626;2023-07-02T01:53:31;98348.63;;;22.33;83.74
11605;BME280;5858;43.076;25.626;2023-07-02T01:55:59;98386.94;;;22.52;83.62
11605;BME280;5858;43.076;25.626;2023-07-02T01:58:26;98109.34;;;20.84;83.70
11605;BME280;5858;43.076;25.626;2023-07-02T02:00:53;98335.91;;;22.18;83.75
11605;BME280;5858;43.076;25.626;2023-07-02T02:03:20;98374.34;;;22.56;84.45
11605;BME280;5858;43.076;25.626;2023-07-02T02:05:47;98381.22;;;22.48;85.31
11605;BME280;5858;43.076;25.626;2023-07-02T02:08:14;98382.94;;;22.39;85.73
11605;BME280;5858;43.076;25.626;2023-07-02T02:10:41;98389.00;;;22.31;86.20
11605;BME280;5858;43.076;25.626;2023-07-02T02:13:09;98338.19;;;21.96;86.83
11605;BME280;5858;43.076;25.626;2023-07-02T02:15:36;98390.41;;;22.23;87.29
11605;BME280;5858;43.076;25.626;2023-07-02T02:18:03;98379.03;;;22.01;89.21
11605;BME280;5858;43.076;25.626;2023-07-02T02:20:30;98375.19;;;22.12;88.79
11605;BME280;5858;43.076;25.626;2023-07-02T02:22:57;98369.25;;;21.95;89.29
11605;BME280;5858;43.076;25.626;2023-07-02T02:25:24;98383.13;;;21.98;89.05
11605;BME280;5858;43.076;25.626;2023-07-02T02:27:52;98366.00;;;21.93;88.72
11605;BME280;5858;43.076;25.626;2023-07-02T02:30:20;98376.91;;;21.93;89.39
11605;BME280;5858;43.076;25.626;2023-07-02T02:32:47;98378.03;;;21.87;90.12
11605;BME280;5858;43.076;25.626;2023-07-02T02:35:20;98383.53;;;21.77;91.06
11605;BME280;5858;43.076;25.626;2023-07-02T02:37:48;98381.34;;;21.68;92.03
11605;BME280;5858;43.076;25.626;2023-07-02T02:40:15;98380.22;;;21.75;91.02
11605;BME280;5858;43.076;25.626;2023-07-02T02:42:42;98363.38;;;21.67;91.18
11605;BME280;5858;43.076;25.626;2023-07-02T02:45:09;98385.16;;;21.67;91.29
11605;BME280;5858;43.076;25.626;2023-07-02T02:47:38;98357.97;;;21.57;91.39
11605;BME280;5858;43.076;25.626;2023-07-02T02:50:06;98363.19;;;21.49;92.78
11605;BME280;5858;43.076;25.626;2023-07-02T02:52:35;98285.50;;;20.92;93.00
11605;BME280;5858;43.076;25.626;2023-07-02T02:55:02;98377.03;;;21.57;92.52
11605;BME280;5858;43.076;25.626;2023-07-02T02:57:30;98256.41;;;20.77;92.49
11605;BME280;5858;43.076;25.626;2023-07-02T02:59:56;98385.47;;;21.61;92.51
11605;BME280;5858;43.076;25.626;2023-07-02T03:02:23;98349.09;;;21.36;92.44
11605;BME280;5858;43.076;25.626;2023-07-02T03:04:51;98390.94;;;21.56;93.48
11605;BME280;5858;43.076;25.626;2023-07-02T03:07:19;98391.53;;;21.43;94.27
11605;BME280;5858;43.076;25.626;2023-07-02T03:09:47;98405.63;;;21.60;93.02
11605;BME280;5858;43.076;25.626;2023-07-02T03:12:14;98397.44;;;21.65;92.92
11605;BME280;5858;43.076;25.626;2023-07-02T03:14:44;98395.06;;;21.38;94.54
11605;BME280;5858;43.076;25.626;2023-07-02T03:17:13;98392.63;;;21.36;94.88
11605;BME280;5858;43.076;25.626;2023-07-02T03:19:40;98392.91;;;21.35;95.24
11605;BME280;5858;43.076;25.626;2023-07-02T03:22:08;98392.34;;;21.38;95.25
11605;BME280;5858;43.076;25.626;2023-07-02T03:24:35;98402.44;;;21.07;97.36
11605;BME280;5858;43.076;25.626;2023-07-02T03:27:02;98392.09;;;21.24;97.50
11605;BME280;5858;43.076;25.626;2023-07-02T03:29:29;98361.59;;;21.22;95.68
11605;BME280;5858;43.076;25.626;2023-07-02T03:31:56;98342.56;;;21.12;95.55
11605;BME280;5858;43.076;25.626;2023-07-02T03:34:23;98395.41;;;21.96;93.88
11605;BME280;5858;43.076;25.626;2023-07-02T03:36:50;98334.44;;;21.87;91.77
11605;BME280;5858;43.076;25.626;2023-07-02T03:39:18;98398.38;;;22.93;89.11
11605;BME280;5858;43.076;25.626;2023-07-02T03:41:46;98373.72;;;23.32;86.32
11605;BME280;5858;43.076;25.626;2023-07-02T03:44:13;98413.59;;;24.05;81.00
11605;BME280;5858;43.076;25.626;2023-07-02T03:46:40;98376.41;;;24.28;77.81
11605;BME280;5858;43.076;25.626;2023-07-02T03:49:07;98378.22;;;24.70;75.34
11605;BME280;5858;43.076;25.626;2023-07-02T03:51:34;98400.28;;;25.11;72.85
11605;BME280;5858;43.076;25.626;2023-07-02T03:54:01;98424.88;;;25.43;71.43
11605;BME280;5858;43.076;25.626;2023-07-02T03:56:30;98393.66;;;25.58;69.32
11605;BME280;5858;43.076;25.626;2023-07-02T03:58:56;98441.63;;;26.02;67.21
11605;BME280;5858;43.076;25.626;2023-07-02T04:01:23;98371.56;;;25.55;67.34
11605;BME280;5858;43.076;25.626;2023-07-02T04:03:52;98430.66;;;26.02;67.47
11605;BME280;5858;43.076;25.626;2023-07-02T04:06:19;98407.50;;;25.81;66.91
11605;BME280;5858;43.076;25.626;2023-07-02T04:08:46;98431.47;;;26.02;66.72
11605;BME280;5858;43.076;25.626;2023-07-02T04:11:13;98427.19;;;25.83;66.91
11605;BME280;5858;43.076;25.626;2023-07-02T04:13:41;98351.94;;;24.88;68.91
11605;BME280;5858;43.076;25.626;2023-07-02T04:16:08;98438.16;;;25.69;68.86
11605;BME280;5858;43.076;25.626;2023-07-02T04:18:35;98421.63;;;25.74;68.19
11605;BME280;5858;43.076;25.626;2023-07-02T04:21:02;98336.44;;;25.29;67.68
11605;BME280;5858;43.076;25.626;2023-07-02T04:23:29;98440.47;;;26.17;66.19
11605;BME280;5858;43.076;25.626;2023-07-02T04:25:56;98448.69;;;26.30;65.72
11605;BME280;5858;43.076;25.626;2023-07-02T04:28:22;98452.72;;;26.60;64.31
11605;BME280;5858;43.076;25.626;2023-07-02T04:30:51;98468.09;;;26.84;63.21
11605;BME280;5858;43.076;25.626;2023-07-02T04:33:18;98433.03;;;26.81;61.63
11605;BME280;5858;43.076;25.626;2023-07-02T04:35:46;98448.84;;;26.97;60.67
11605;BME280;5858;43.076;25.626;2023-07-02T04:38:13;98416.97;;;27.10;59.76
11605;BME280;5858;43.076;25.626;2023-07-02T04:40:40;98455.34;;;27.46;57.93
11605;BME280;5858;43.076;25.626;2023-07-02T04:43:10;98283.22;;;26.57;56.61
11605;BME280;5858;43.076;25.626;2023-07-02T04:45:37;98390.13;;;27.38;54.32
11605;BME280;5858;43.076;25.626;2023-07-02T04:48:07;98479.59;;;28.15;54.21
11605;BME280;5858;43.076;25.626;2023-07-02T04:50:33;98452.13;;;28.24;53.26
11605;BME280;5858;43.076;25.626;2023-07-02T04:53:01;98480.31;;;28.38;53.72
11605;BME280;5858;43.076;25.626;2023-07-02T04:55:27;98404.03;;;28.21;52.73
11605;BME280;5858;43.076;25.626;2023-07-02T04:57:54;98493.34;;;28.80;52.73
11605;BME280;5858;43.076;25.626;2023-07-02T05:00:21;98488.53;;;29.12;51.37
11605;BME280;5858;43.076;25.626;2023-07-02T05:02:48;98481.19;;;29.42;50.45
11605;BME280;5858;43.076;25.626;2023-07-02T05:05:17;98450.06;;;29.41;50.44
11605;BME280;5858;43.076;25.626;2023-07-02T05:07:44;98459.16;;;29.51;49.98
11605;BME280;5858;43.076;25.626;2023-07-02T05:10:11;98399.97;;;29.39;47.17
11605;BME280;5858;43.076;25.626;2023-07-02T05:12:38;98380.19;;;29.37;48.62
11605;BME280;5858;43.076;25.626;2023-07-02T05:15:09;98447.78;;;29.99;47.51
11605;BME280;5858;43.076;25.626;2023-07-02T05:17:37;98479.25;;;30.36;46.63
11605;BME280;5858;43.076;25.626;2023-07-02T05:20:06;98447.38;;;30.18;46.14
11605;BME280;5858;43.076;25.626;2023-07-02T05:22:34;98438.81;;;30.40;46.11
11605;BME280;5858;43.076;25.626;2023-07-02T05:25:05;98338.34;;;29.82;46.14
11605;BME280;5858;43.076;25.626;2023-07-02T05:27:32;98502.03;;;31.04;45.15
11605;BME280;5858;43.076;25.626;2023-07-02T05:30:01;98404.34;;;30.67;43.92
11605;BME280;5858;43.076;25.626;2023-07-02T05:32:37;98384.31;;;30.70;44.10
11605;BME280;5858;43.076;25.626;2023-07-02T05:35:06;98494.56;;;31.58;43.79
11605;BME280;5858;43.076;25.626;2023-07-02T05:37:35;98462.28;;;31.62;42.64
11605;BME280;5858;43.076;25.626;2023-07-02T05:40:03;98377.44;;;31.42;43.10
11605;BME280;5858;43.076;25.626;2023-07-02T05:42:31;98447.25;;;31.84;41.78
11605;BME280;5858;43.076;25.626;2023-07-02T05:45:08;98330.13;;;31.11;41.71
11605;BME280;5858;43.076;25.626;2023-07-02T05:47:36;98484.88;;;32.71;40.18
11605;BME280;5858;43.076;25.626;2023-07-02T05:50:10;98310.97;;;31.39;41.05
11605;BME280;5858;43.076;25.626;2023-07-02T05:52:39;98442.47;;;31.60;41.08
11605;BME280;5858;43.076;25.626;2023-07-02T05:55:11;98460.59;;;31.25;42.17
11605;BME280;5858;43.076;25.626;2023-07-02T05:57:38;98427.81;;;31.48;41.97
11605;BME280;5858;43.076;25.626;2023-07-02T06:00:09;98434.22;;;31.27;42.50
11605;BME280;5858;43.076;25.626;2023-07-02T06:02:36;98503.00;;;31.29;42.32
11605;BME280;5858;43.076;25.626;2023-07-02T06:05:04;98424.63;;;30.71;41.84
11605;BME280;5858;43.076;25.626;2023-07-02T06:07:33;98494.09;;;31.23;42.12
11605;BME280;5858;43.076;25.626;2023-07-02T06:10:02;98464.06;;;30.80;42.10
11605;BME280;5858;43.076;25.626;2023-07-02T06:12:29;98297.19;;;29.39;42.51
11605;BME280;5858;43.076;25.626;2023-07-02T06:14:56;98479.63;;;30.26;44.49
11605;BME280;5858;43.076;25.626;2023-07-02T06:17:23;98465.44;;;30.06;44.96
11605;BME280;5858;43.076;25.626;2023-07-02T06:19:51;98401.19;;;29.97;45.00
11605;BME280;5858;43.076;25.626;2023-07-02T06:22:19;98496.78;;;31.11;44.31
11605;BME280;5858;43.076;25.626;2023-07-02T06:24:47;98379.28;;;31.05;41.24
11605;BME280;5858;43.076;25.626;2023-07-02T06:27:16;98370.66;;;31.64;40.04
11605;BME280;5858;43.076;25.626;2023-07-02T06:29:43;98483.00;;;32.75;39.93
11605;BME280;5858;43.076;25.626;2023-07-02T06:32:10;98475.69;;;32.95;38.45
11605;BME280;5858;43.076;25.626;2023-07-02T06:34:37;98394.53;;;32.42;39.32
11605;BME280;5858;43.076;25.626;2023-07-02T06:37:04;98434.03;;;32.27;38.32
11605;BME280;5858;43.076;25.626;2023-07-02T06:39:32;98381.56;;;31.81;39.70
11605;BME280;5858;43.076;25.626;2023-07-02T06:41:59;98469.63;;;32.16;40.45
11605;BME280;5858;43.076;25.626;2023-07-02T06:44:27;98481.16;;;32.06;40.21
11605;BME280;5858;43.076;25.626;2023-07-02T06:46:54;98500.31;;;31.86;40.90
11605;BME280;5858;43.076;25.626;2023-07-02T06:49:21;98467.13;;;31.53;41.24
11605;BME280;5858;43.076;25.626;2023-07-02T06:51:48;98480.78;;;31.38;42.04
11605;BME280;5858;43.076;25.626;2023-07-02T06:54:14;98442.59;;;30.98;42.82
11605;BME280;5858;43.076;25.626;2023-07-02T06:56:41;98464.75;;;31.10;42.45
11605;BME280;5858;43.076;25.626;2023-07-02T06:59:08;98464.50;;;30.61;42.37
11605;BME280;5858;43.076;25.626;2023-07-02T07:01:36;98486.94;;;31.01;42.80
11605;BME280;5858;43.076;25.626;2023-07-02T07:04:03;98463.53;;;31.20;42.99
11605;BME280;5858;43.076;25.626;2023-07-02T07:06:30;98484.06;;;31.52;42.42
11605;BME280;5858;43.076;25.626;2023-07-02T07:08:57;98432.66;;;31.51;41.83
11605;BME280;5858;43.076;25.626;2023-07-02T07:11:24;98403.50;;;31.41;39.67
11605;BME280;5858;43.076;25.626;2023-07-02T07:13:51;98470.50;;;31.05;40.68
11605;BME280;5858;43.076;25.626;2023-07-02T07:16:18;98496.09;;;31.14;42.28
11605;BME280;5858;43.076;25.626;2023-07-02T07:18:46;98503.81;;;30.88;42.78
11605;BME280;5858;43.076;25.626;2023-07-02T07:21:13;98497.31;;;30.63;43.58
11605;BME280;5858;43.076;25.626;2023-07-02T07:23:40;98409.88;;;29.78;44.94
11605;BME280;5858;43.076;25.626;2023-07-02T07:26:07;98484.53;;;30.20;46.54
11605;BME280;5858;43.076;25.626;2023-07-02T07:28:34;98497.63;;;30.61;44.00
11605;BME280;5858;43.076;25.626;2023-07-02T07:31:01;98498.47;;;30.24;44.21
11605;BME280;5858;43.076;25.626;2023-07-02T07:33:28;98461.88;;;30.06;45.38
11605;BME280;5858;43.076;25.626;2023-07-02T07:35:56;98444.34;;;29.64;44.88
11605;BME280;5858;43.076;25.626;2023-07-02T07:38:23;98472.50;;;29.87;44.72
11605;BME280;5858;43.076;25.626;2023-07-02T07:40:50;98421.19;;;29.56;45.85
11605;BME280;5858;43.076;25.626;2023-07-02T07:43:17;98492.47;;;29.75;46.52
11605;BME280;5858;43.076;25.626;2023-07-02T07:45:44;98394.72;;;28.91;48.42
11605;BME280;5858;43.076;25.626;2023-07-02T07:48:11;98441.63;;;29.29;48.00
11605;BME280;5858;43.076;25.626;2023-07-02T07:50:38;98465.31;;;29.30;46.18
11605;BME280;5858;43.076;25.626;2023-07-02T07:53:06;98478.28;;;29.38;47.55
11605;BME280;5858;43.076;25.626;2023-07-02T07:55:33;98490.75;;;29.27;48.54
11605;BME280;5858;43.076;25.626;2023-07-02T07:58:00;98501.63;;;29.50;47.20
11605;BME280;5858;43.076;25.626;2023-07-02T08:00:27;98509.25;;;29.53;49.08
11605;BME280;5858;43.076;25.626;2023-07-02T08:02:54;98426.81;;;28.96;48.14
11605;BME280;5858;43.076;25.626;2023-07-02T08:05:22;98502.78;;;29.49;48.30
11605;BME280;5858;43.076;25.626;2023-07-02T08:07:49;98474.72;;;29.29;46.65
11605;BME280;5858;43.076;25.626;2023-07-02T08:10:17;98527.72;;;29.61;48.06
11605;BME280;5858;43.076;25.626;2023-07-02T08:12:45;98512.50;;;29.37;47.08
11605;BME280;5858;43.076;25.626;2023-07-02T08:15:13;98486.72;;;29.16;48.68
11605;BME280;5858;43.076;25.626;2023-07-02T08:17:40;98507.31;;;29.10;48.81
11605;BME280;5858;43.076;25.626;2023-07-02T08:20:07;98515.59;;;29.10;48.58
11605;BME280;5858;43.076;25.626;2023-07-02T08:22:35;98461.44;;;28.62;51.11
11605;BME280;5858;43.076;25.626;2023-07-02T08:25:02;98481.06;;;29.04;51.55
11605;BME280;5858;43.076;25.626;2023-07-02T08:27:31;98323.38;;;27.86;51.67
11605;BME280;5858;43.076;25.626;2023-07-02T08:29:58;98438.09;;;28.60;49.15
11605;BME280;5858;43.076;25.626;2023-07-02T08:32:25;98423.53;;;28.68;50.59
11605;BME280;5858;43.076;25.626;2023-07-02T08:34:52;98429.34;;;28.75;48.75
11605;BME280;5858;43.076;25.626;2023-07-02T08:37:20;98463.41;;;28.96;47.88
11605;BME280;5858;43.076;25.626;2023-07-02T08:39:49;98470.72;;;29.01;46.37
11605;BME280;5858;43.076;25.626;2023-07-02T08:42:16;98448.63;;;28.75;46.75
11605;BME280;5858;43.076;25.626;2023-07-02T08:44:47;98486.41;;;29.18;48.80
11605;BME280;5858;43.076;25.626;2023-07-02T08:47:14;98454.81;;;29.06;49.92
11605;BME280;5858;43.076;25.626;2023-07-02T08:49:41;98494.81;;;29.38;52.61
11605;BME280;5858;43.076;25.626;2023-07-02T08:52:08;98470.50;;;29.23;50.37
11605;BME280;5858;43.076;25.626;2023-07-02T08:54:36;98468.75;;;29.19;57.66
11605;BME280;5858;43.076;25.626;2023-07-02T08:57:04;98442.84;;;28.94;52.62
11605;BME280;5858;43.076;25.626;2023-07-02T08:59:31;98496.63;;;29.34;50.77
11605;BME280;5858;43.076;25.626;2023-07-02T09:02:00;98447.66;;;29.23;49.70
11605;BME280;5858;43.076;25.626;2023-07-02T09:04:27;98473.59;;;29.22;50.27
11605;BME280;5858;43.076;25.626;2023-07-02T09:07:04;98420.13;;;29.05;53.24
11605;BME280;5858;43.076;25.626;2023-07-02T09:09:32;98463.00;;;29.58;53.16
11605;BME280;5858;43.076;25.626;2023-07-02T09:12:00;98432.56;;;29.37;51.48
11605;BME280;5858;43.076;25.626;2023-07-02T09:14:29;98474.81;;;29.67;48.74
11605;BME280;5858;43.076;25.626;2023-07-02T09:17:08;98452.06;;;29.79;48.85
11605;BME280;5858;43.076;25.626;2023-07-02T09:19:36;98504.97;;;30.28;47.37
11605;BME280;5858;43.076;25.626;2023-07-02T09:22:03;98503.22;;;30.15;47.88
11605;BME280;5858;43.076;25.626;2023-07-02T09:24:31;98479.88;;;30.12;49.59
11605;BME280;5858;43.076;25.626;2023-07-02T09:27:00;98503.16;;;30.32;50.11
11605;BME280;5858;43.076;25.626;2023-07-02T09:29:28;98508.28;;;30.13;43.09
11605;BME280;5858;43.076;25.626;2023-07-02T09:31:56;98510.56;;;30.11;44.37
11605;BME280;5858;43.076;25.626;2023-07-02T09:34:29;98516.75;;;30.07;47.48
11605;BME280;5858;43.076;25.626;2023-07-02T09:36:56;98423.00;;;29.43;43.46
11605;BME280;5858;43.076;25.626;2023-07-02T09:39:26;98468.56;;;29.96;43.87
11605;BME280;5858;43.076;25.626;2023-07-02T09:41:54;98516.91;;;30.41;41.81
11605;BME280;5858;43.076;25.626;2023-07-02T09:44:25;98516.50;;;30.30;39.53
11605;BME280;5858;43.076;25.626;2023-07-02T09:46:58;98461.44;;;30.25;39.13
11605;BME280;5858;43.076;25.626;2023-07-02T09:49:25;98501.63;;;30.73;38.71
11605;BME280;5858;43.076;25.626;2023-07-02T09:51:54;98418.88;;;30.05;40.23
11605;BME280;5858;43.076;25.626;2023-07-02T09:54:21;98515.34;;;30.60;40.74
11605;BME280;5858;43.076;25.626;2023-07-02T09:56:49;98525.72;;;30.63;38.99
11605;BME280;5858;43.076;25.626;2023-07-02T09:59:16;98464.06;;;30.51;40.00
11605;BME280;5858;43.076;25.626;2023-07-02T10:01:43;98503.13;;;30.41;40.51
11605;BME280;5858;43.076;25.626;2023-07-02T10:04:12;98462.38;;;30.37;40.04
11605;BME280;5858;43.076;25.626;2023-07-02T10:06:46;98512.75;;;30.26;39.11
11605;BME280;5858;43.076;25.626;2023-07-02T10:09:15;98507.34;;;30.38;40.72
11605;BME280;5858;43.076;25.626;2023-07-02T10:11:42;98504.19;;;30.19;39.64
11605;BME280;5858;43.076;25.626;2023-07-02T10:14:09;98507.41;;;30.21;39.32
11605;BME280;5858;43.076;25.626;2023-07-02T10:16:48;98390.34;;;29.92;40.19
11605;BME280;5858;43.076;25.626;2023-07-02T10:19:16;98477.56;;;30.73;40.02
11605;BME280;5858;43.076;25.626;2023-07-02T10:21:43;98481.16;;;30.94;40.29
11605;BME280;5858;43.076;25.626;2023-07-02T10:24:15;98331.09;;;29.98;41.72
11605;BME280;5858;43.076;25.626;2023-07-02T10:27:32;98490.03;;;31.00;43.14
11605;BME280;5858;43.076;25.626;2023-07-02T10:30:00;98485.41;;;30.92;42.72
11605;BME280;5858;43.076;25.626;2023-07-02T10:32:28;98513.09;;;30.83;43.39
11605;BME280;5858;43.076;25.626;2023-07-02T10:34:56;98491.41;;;30.44;43.18
11605;BME280;5858;43.076;25.626;2023-07-02T10:37:44;98479.69;;;30.47;43.22
11605;BME280;5858;43.076;25.626;2023-07-02T10:40:13;98354.47;;;29.63;42.84
11605;BME280;5858;43.076;25.626;2023-07-02T10:42:46;98348.53;;;29.52;42.57
11605;BME280;5858;43.076;25.626;2023-07-02T10:45:14;98416.38;;;29.83;42.43
11605;BME280;5858;43.076;25.626;2023-07-02T10:47:41;98437.53;;;29.99;43.15
11605;BME280;5858;43.076;25.626;2023-07-02T10:50:15;98458.13;;;30.11;41.92
11605;BME280;5858;43.076;25.626;2023-07-02T10:52:42;98476.84;;;30.34;42.10
11605;BME280;5858;43.076;25.626;2023-07-02T10:55:18;98445.66;;;30.04;43.29
11605;BME280;5858;43.076;25.626;2023-07-02T10:57:45;98466.81;;;30.51;43.14
11605;BME280;5858;43.076;25.626;2023-07-02T11:00:13;98411.25;;;30.02;42.31
11605;BME280;5858;43.076;25.626;2023-07-02T11:02:40;98466.75;;;30.38;43.03
11605;BME280;5858;43.076;25.626;2023-07-02T11:05:08;98427.66;;;29.98;43.08
11605;BME280;5858;43.076;25.626;2023-07-02T11:07:38;98417.00;;;30.18;41.86
11605;BME280;5858;43.076;25.626;2023-07-02T11:10:05;98387.72;;;30.04;40.97
11605;BME280;5858;43.076;25.626;2023-07-02T11:12:34;98408.31;;;30.07;40.87
11605;BME280;5858;43.076;25.626;2023-07-02T11:15:08;98343.22;;;29.47;41.13
11605;BME280;5858;43.076;25.626;2023-07-02T11:17:35;98430.53;;;30.11;41.09
11605;BME280;5858;43.076;25.626;2023-07-02T11:20:03;98444.06;;;30.24;40.35
11605;BME280;5858;43.076;25.626;2023-07-02T11:22:31;98406.84;;;30.01;39.43
11605;BME280;5858;43.076;25.626;2023-07-02T11:25:08;98444.88;;;30.54;39.40
11605;BME280;5858;43.076;25.626;2023-07-02T11:27:37;98348.56;;;30.11;40.71
11605;BME280;5858;43.076;25.626;2023-07-02T11:30:05;98327.28;;;30.12;39.81
11605;BME280;5858;43.076;25.626;2023-07-02T11:32:45;98363.84;;;30.71;40.82
11605;BME280;5858;43.076;25.626;2023-07-02T11:35:14;98415.19;;;30.93;41.18
11605;BME280;5858;43.076;25.626;2023-07-02T11:37:41;98396.63;;;30.93;40.53
11605;BME280;5858;43.076;25.626;2023-07-02T11:40:09;98363.69;;;30.88;39.17
11605;BME280;5858;43.076;25.626;2023-07-02T11:42:37;98413.66;;;31.16;39.07
11605;BME280;5858;43.076;25.626;2023-07-02T11:45:05;98386.56;;;31.10;37.90
11605;BME280;5858;43.076;25.626;2023-07-02T11:47:32;98419.53;;;31.60;37.71
11605;BME280;5858;43.076;25.626;2023-07-02T11:49:59;98450.03;;;31.39;37.59
11605;BME280;5858;43.076;25.626;2023-07-02T11:52:26;98354.13;;;30.86;38.38
11605;BME280;5858;43.076;25.626;2023-07-02T11:54:53;98414.66;;;31.33;39.24
11605;BME280;5858;43.076;25.626;2023-07-02T11:57:20;98438.25;;;31.30;38.33
11605;BME280;5858;43.076;25.626;2023-07-02T11:59:49;98428.34;;;31.29;37.75
11605;BME280;5858;43.076;25.626;2023-07-02T12:02:17;98417.75;;;31.31;37.48
11605;BME280;5858;43.076;25.626;2023-07-02T12:04:47;98418.03;;;30.84;37.69
11605;BME280;5858;43.076;25.626;2023-07-02T12:07:14;98443.16;;;30.91;38.88
11605;BME280;5858;43.076;25.626;2023-07-02T12:09:41;98454.88;;;30.67;38.44
11605;BME280;5858;43.076;25.626;2023-07-02T12:12:08;98451.75;;;30.69;39.40
11605;BME280;5858;43.076;25.626;2023-07-02T12:14:35;98395.88;;;30.22;41.66
11605;BME280;5858;43.076;25.626;2023-07-02T12:17:05;98367.75;;;30.28;41.59
11605;BME280;5858;43.076;25.626;2023-07-02T12:19:31;98475.75;;;31.19;38.93
11605;BME280;5858;43.076;25.626;2023-07-02T12:21:58;98457.16;;;31.28;40.14
11605;BME280;5858;43.076;25.626;2023-07-02T12:24:25;98375.53;;;30.77;39.80
11605;BME280;5858;43.076;25.626;2023-07-02T12:26:52;98450.50;;;31.41;38.38
11605;BME280;5858;43.076;25.626;2023-07-02T12:29:19;98312.31;;;30.75;40.50
11605;BME280;5858;43.076;25.626;2023-07-02T12:31:46;98389.69;;;31.53;40.26
11605;BME280;5858;43.076;25.626;2023-07-02T12:34:15;98297.03;;;30.78;41.25
11605;BME280;5858;43.076;25.626;2023-07-02T12:36:42;98397.50;;;31.63;40.65
11605;BME280;5858;43.076;25.626;2023-07-02T12:39:09;98423.06;;;31.81;40.58
11605;BME280;5858;43.076;25.626;2023-07-02T12:41:36;98432.38;;;31.89;41.28
11605;BME280;5858;43.076;25.626;2023-07-02T12:44:04;98353.13;;;31.36;38.77
11605;BME280;5858;43.076;25.626;2023-07-02T12:46:49;98434.91;;;32.06;40.20
11605;BME280;5858;43.076;25.626;2023-07-02T12:49:18;98434.69;;;32.23;39.50
11605;BME280;5858;43.076;25.626;2023-07-02T12:51:46;98402.41;;;32.28;39.20
11605;BME280;5858;43.076;25.626;2023-07-02T12:54:14;98432.63;;;32.33;38.78
11605;BME280;5858;43.076;25.626;2023-07-02T12:56:41;98408.03;;;32.43;39.74
11605;BME280;5858;43.076;25.626;2023-07-02T12:59:08;98418.63;;;32.53;38.37
11605;BME280;5858;43.076;25.626;2023-07-02T13:01:35;98419.22;;;32.47;37.79
11605;BME280;5858;43.076;25.626;2023-07-02T13:04:02;98411.97;;;32.18;38.41
11605;BME280;5858;43.076;25.626;2023-07-02T13:06:30;98449.59;;;32.31;39.04